createdAt,value
2023-03-22T00:00:19.647Z,2.45
2023-03-22T00:02:47.258Z,3.35
2023-03-22T00:05:16.306Z,2.88
2023-03-22T00:07:43.896Z,3.00
2023-03-22T00:10:12.033Z,3.80
2023-03-22T00:12:39.519Z,3.28
2023-03-22T00:15:08.152Z,2.72
2023-03-22T00:17:36.629Z,2.85
2023-03-22T00:20:06.292Z,2.60
2023-03-22T00:22:35.152Z,4.32
2023-03-22T00:25:02.668Z,2.72
2023-03-22T00:27:30.454Z,3.00
2023-03-22T00:29:57.997Z,3.42
2023-03-22T00:32:25.713Z,3.35
2023-03-22T00:34:53.282Z,3.22
2023-03-22T00:37:20.898Z,2.33
2023-03-22T00:39:49.829Z,3.10
2023-03-22T00:42:17.366Z,2.70
2023-03-22T00:44:44.914Z,3.47
2023-03-22T00:47:12.481Z,2.50
2023-03-22T00:49:40.057Z,3.13
2023-03-22T00:52:07.603Z,2.88
2023-03-22T00:54:35.143Z,2.88
2023-03-22T00:57:04.169Z,2.92
2023-03-22T00:59:31.799Z,2.75
2023-03-22T01:01:59.310Z,2.83
2023-03-22T01:04:26.965Z,2.95
2023-03-22T01:06:59.272Z,2.42
2023-03-22T01:09:28.303Z,2.95
2023-03-22T01:11:56.290Z,2.85
2023-03-22T01:14:26.144Z,2.85
2023-03-22T01:16:54.905Z,2.65
2023-03-22T01:19:22.499Z,2.47
2023-03-22T01:21:50.208Z,2.65
2023-03-22T01:24:17.779Z,2.63
2023-03-22T01:26:45.390Z,2.30
2023-03-22T01:29:13.109Z,2.53
2023-03-22T01:31:42.285Z,3.00
2023-03-22T01:34:10.253Z,2.78
2023-03-22T01:36:38.096Z,3.50
2023-03-22T01:39:05.824Z,3.38
2023-03-22T01:41:35.050Z,3.47
2023-03-22T01:44:13.940Z,2.90
2023-03-22T01:46:44.632Z,3.42
2023-03-22T01:49:16.059Z,3.30
2023-03-22T01:51:46.055Z,2.60
2023-03-22T01:54:17.935Z,3.05
2023-03-22T01:56:45.962Z,3.00
2023-03-22T01:59:15.976Z,3.45
2023-03-22T02:01:47.087Z,3.28
2023-03-22T02:04:20.001Z,2.85
2023-03-22T02:06:48.453Z,3.15
2023-03-22T02:09:21.967Z,3.80
2023-03-22T02:11:59.303Z,3.10
2023-03-22T02:14:39.365Z,3.08
2023-03-22T02:17:21.089Z,3.15
2023-03-22T02:20:16.439Z,3.20
2023-03-22T02:23:02.287Z,3.70
2023-03-22T02:26:03.394Z,3.50
2023-03-22T02:28:42.149Z,3.70
2023-03-22T02:31:38.278Z,3.47
2023-03-22T03:13:39.230Z,3.00
2023-03-22T03:16:08.372Z,3.00
2023-03-22T03:18:45.808Z,3.00
2023-03-22T03:21:30.178Z,3.08
2023-03-22T03:24:08.674Z,3.40
2023-03-22T03:26:44.753Z,2.88
2023-03-22T03:29:18.993Z,2.67
2023-03-22T03:31:51.429Z,3.17
2023-03-22T03:34:23.209Z,2.67
2023-03-22T03:36:57.699Z,3.17
2023-03-22T03:39:27.661Z,3.08
2023-03-22T03:41:56.757Z,3.33
2023-03-22T03:44:25.844Z,2.55
2023-03-22T03:46:54.847Z,2.85
2023-03-22T03:49:24.240Z,2.50
2023-03-22T03:51:54.454Z,2.75
2023-03-22T03:54:23.019Z,3.17
2023-03-22T03:56:50.956Z,2.67
2023-03-22T03:59:20.873Z,2.70
2023-03-22T04:01:52.465Z,2.40
2023-03-22T04:04:26.476Z,2.42
2023-03-22T04:06:56.800Z,2.45
2023-03-22T04:09:25.200Z,2.35
2023-03-22T04:11:52.710Z,2.53
2023-03-22T04:14:20.325Z,2.35
2023-03-22T04:16:49.210Z,2.15
2023-03-22T04:19:16.906Z,2.20
2023-03-22T04:21:44.579Z,2.50
2023-03-22T04:24:12.740Z,2.80
2023-03-22T04:26:40.761Z,2.22
2023-03-22T04:29:08.546Z,2.50
2023-03-22T04:31:36.878Z,2.13
2023-03-22T04:34:06.413Z,2.33
2023-03-22T04:36:36.385Z,2.40
2023-03-22T04:39:05.967Z,3.30
2023-03-22T04:41:33.554Z,3.13
2023-03-22T04:44:03.206Z,2.30
2023-03-22T04:46:31.397Z,3.00
2023-03-22T04:48:59.225Z,2.85
2023-03-22T04:51:28.786Z,3.38
2023-03-22T04:53:56.335Z,2.42
2023-03-22T04:56:23.880Z,2.90
2023-03-22T04:58:51.547Z,3.08
2023-03-22T05:01:19.477Z,2.30
2023-03-22T05:03:47.452Z,2.75
2023-03-22T05:06:16.012Z,3.13
2023-03-22T05:08:45.050Z,3.25
2023-03-22T05:11:16.355Z,2.97
2023-03-22T05:13:44.474Z,3.20
2023-03-22T05:16:12.525Z,2.80
2023-03-22T05:18:42.457Z,2.83
2023-03-22T05:21:13.737Z,2.92
2023-03-22T05:23:41.967Z,2.90
2023-03-22T05:26:16.114Z,3.28
2023-03-22T05:28:44.707Z,2.60
2023-03-22T05:31:14.657Z,2.97
2023-03-22T05:33:42.476Z,3.15
2023-03-22T05:36:11.675Z,3.03
2023-03-22T05:38:39.570Z,3.28
2023-03-22T05:41:07.637Z,3.22
2023-03-22T05:43:36.499Z,2.85
2023-03-22T05:46:06.725Z,3.22
2023-03-22T05:48:34.424Z,3.00
2023-03-22T05:51:03.406Z,3.40
2023-03-22T05:53:31.859Z,2.67
2023-03-22T05:56:01.899Z,2.78
2023-03-22T05:58:30.640Z,3.88
2023-03-22T06:01:05.948Z,4.03
2023-03-22T06:03:33.533Z,3.13
2023-03-22T06:06:01.117Z,3.25
2023-03-22T06:08:28.671Z,2.85
2023-03-22T06:10:56.410Z,3.45
2023-03-22T06:13:23.933Z,3.00
2023-03-22T06:15:51.747Z,3.20
2023-03-22T06:18:20.769Z,3.05
2023-03-22T06:20:48.272Z,3.15
2023-03-22T06:23:15.812Z,3.92
2023-03-22T06:25:43.550Z,3.13
2023-03-22T06:28:11.080Z,2.97
2023-03-22T06:30:38.939Z,2.85
2023-03-22T06:33:06.955Z,3.28
2023-03-22T06:35:36.238Z,3.33
2023-03-22T06:38:03.897Z,3.05
2023-03-22T06:40:31.427Z,3.35
2023-03-22T06:43:01.628Z,2.75
2023-03-22T06:45:33.454Z,2.75
2023-03-22T06:48:01.536Z,2.72
2023-03-22T06:50:29.796Z,2.90
2023-03-22T06:52:58.686Z,2.63
2023-03-22T06:55:26.304Z,2.90
2023-03-22T06:57:53.797Z,3.90
2023-03-22T07:00:21.593Z,2.45
2023-03-22T07:02:50.921Z,2.80
2023-03-22T07:05:20.257Z,3.10
2023-03-22T07:07:47.833Z,2.65
2023-03-22T07:10:16.662Z,2.70
2023-03-22T07:12:44.203Z,3.25
2023-03-22T07:15:12.423Z,2.65
2023-03-22T07:17:39.931Z,2.97
2023-03-22T07:20:08.655Z,2.78
2023-03-22T07:22:36.226Z,2.97
2023-03-22T07:25:03.930Z,3.88
2023-03-22T07:27:32.793Z,3.13
2023-03-22T07:30:00.416Z,3.15
2023-03-22T07:32:27.965Z,2.67
2023-03-22T07:34:55.489Z,3.40
2023-03-22T07:37:23.203Z,2.97
2023-03-22T07:39:50.684Z,3.05
2023-03-22T07:42:18.214Z,2.70
2023-03-22T07:44:49.750Z,2.55
2023-03-22T07:47:22.146Z,2.30
2023-03-22T07:49:54.782Z,2.58
2023-03-22T07:52:22.326Z,2.65
2023-03-22T07:54:49.829Z,3.10
2023-03-22T07:57:17.319Z,2.63
2023-03-22T07:59:44.809Z,2.28
2023-03-22T08:02:13.828Z,2.17
2023-03-22T08:04:41.373Z,2.00
2023-03-22T08:07:10.104Z,2.25
2023-03-22T08:09:37.976Z,1.95
2023-03-22T08:12:06.216Z,2.03
2023-03-22T08:14:37.087Z,1.55
2023-03-22T08:17:05.063Z,1.20
2023-03-22T08:19:34.204Z,1.20
2023-03-22T08:22:01.906Z,1.17
2023-03-22T08:24:29.390Z,0.90
2023-03-22T08:26:57.577Z,1.13
2023-03-22T08:29:25.217Z,0.98
2023-03-22T08:31:52.813Z,1.00
2023-03-22T08:34:20.396Z,0.75
2023-03-22T08:36:49.249Z,0.93
2023-03-22T08:39:16.807Z,0.77
2023-03-22T08:41:44.373Z,0.80
2023-03-22T08:44:11.964Z,0.80
2023-03-22T08:46:40.067Z,1.00
2023-03-22T08:49:10.377Z,0.60
2023-03-22T08:51:37.931Z,0.80
2023-03-22T08:54:08.088Z,1.15
2023-03-22T08:56:38.161Z,0.82
2023-03-22T08:59:06.564Z,1.30
2023-03-22T09:01:34.165Z,1.08
2023-03-22T09:04:02.110Z,1.17
2023-03-22T09:06:29.709Z,0.60
2023-03-22T09:08:57.642Z,0.88
2023-03-22T09:11:26.569Z,0.70
2023-03-22T09:13:54.060Z,0.70
2023-03-22T09:16:21.605Z,0.70
2023-03-22T09:18:49.152Z,0.68
2023-03-22T09:21:16.736Z,0.63
2023-03-22T09:23:47.835Z,0.30
2023-03-22T09:26:15.791Z,0.50
2023-03-22T09:28:46.820Z,0.65
2023-03-22T09:31:14.544Z,0.40
2023-03-22T09:33:42.427Z,0.60
2023-03-22T09:36:11.904Z,0.65
2023-03-22T09:38:39.514Z,0.55
2023-03-22T09:41:12.466Z,0.30
2023-03-22T09:43:43.448Z,0.30
2023-03-22T09:46:16.818Z,0.40
2023-03-22T09:48:48.346Z,0.50
2023-03-22T09:53:49.158Z,0.50
2023-03-22T09:56:23.067Z,0.28
2023-03-22T09:58:57.252Z,0.43
2023-03-22T10:01:35.098Z,0.40
2023-03-22T10:04:27.182Z,0.90
2023-03-22T10:07:06.818Z,0.70
2023-03-22T10:09:40.289Z,1.10
2023-03-22T10:12:16.461Z,0.85
2023-03-22T10:14:50.742Z,0.50
2023-03-22T10:17:24.097Z,0.65
2023-03-22T10:19:56.367Z,0.50
2023-03-22T10:22:29.945Z,0.60
2023-03-22T10:24:58.935Z,0.60
2023-03-22T10:27:27.630Z,0.52
2023-03-22T10:29:59.293Z,0.80
2023-03-22T10:32:36.322Z,0.50
2023-03-22T10:35:07.110Z,0.90
2023-03-22T10:37:37.609Z,0.63
2023-03-22T10:40:07.941Z,0.60
2023-03-22T10:42:37.767Z,0.40
2023-03-22T10:45:09.398Z,0.50
2023-03-22T10:47:42.751Z,0.47
2023-03-22T10:50:16.710Z,0.40
2023-03-22T10:52:50.760Z,0.43
2023-03-22T10:55:18.605Z,0.32
2023-03-22T10:58:09.540Z,0.45
2023-03-22T11:00:40.599Z,0.40
2023-03-22T11:03:27.602Z,0.20
2023-03-22T11:06:08.036Z,0.50
2023-03-22T11:08:45.028Z,0.28
2023-03-22T11:11:24.204Z,0.30
2023-03-22T11:13:54.945Z,0.65
2023-03-22T11:16:23.903Z,0.40
2023-03-22T11:18:52.898Z,0.32
2023-03-22T11:21:24.032Z,0.50
2023-03-22T11:23:57.423Z,0.40
2023-03-22T11:26:31.958Z,0.50
2023-03-22T11:29:11.642Z,0.47
2023-03-22T11:31:56.324Z,0.38
2023-03-22T11:34:28.063Z,0.70
2023-03-22T11:36:57.532Z,0.80
2023-03-22T11:39:28.324Z,0.68
2023-03-22T11:42:01.129Z,0.68
2023-03-22T11:44:33.086Z,0.50
2023-03-22T11:49:39.252Z,0.45
2023-03-22T11:52:12.596Z,0.80
2023-03-22T11:54:42.360Z,1.05
2023-03-22T11:57:16.987Z,1.50
2023-03-22T11:59:51.077Z,1.42
2023-03-22T12:02:24.667Z,0.60
2023-03-22T12:05:01.698Z,2.17
2023-03-22T12:07:33.739Z,1.00
2023-03-22T12:10:06.112Z,1.23
2023-03-22T12:12:37.817Z,0.95
2023-03-22T12:15:13.575Z,0.52
2023-03-22T12:17:46.319Z,0.70
2023-03-22T12:20:23.106Z,0.60
2023-03-22T12:22:54.785Z,0.52
2023-03-22T12:25:26.542Z,0.88
2023-03-22T12:27:57.089Z,0.50
2023-03-22T12:30:26.826Z,0.60
2023-03-22T12:33:01.537Z,0.57
2023-03-22T12:35:32.803Z,0.70
2023-03-22T12:38:07.735Z,0.50
2023-03-22T12:40:39.766Z,0.40
2023-03-22T12:43:15.376Z,1.08
2023-03-22T12:45:49.064Z,0.60
2023-03-22T12:48:20.704Z,0.20
2023-03-22T12:50:53.724Z,0.30
2023-03-22T12:53:23.753Z,0.60
2023-03-22T12:55:52.183Z,0.60
2023-03-22T12:58:22.483Z,0.40
2023-03-22T13:00:55.908Z,0.68
2023-03-22T13:03:28.811Z,0.38
2023-03-22T13:06:05.361Z,0.40
2023-03-22T13:09:15.590Z,0.60
2023-03-22T13:11:44.812Z,0.30
2023-03-22T13:14:34.834Z,0.60
2023-03-22T13:17:02.581Z,0.35
2023-03-22T13:19:34.600Z,0.50
2023-03-22T13:22:22.220Z,0.30
2023-03-22T13:25:07.196Z,0.30
2023-03-22T13:27:39.901Z,0.55
2023-03-22T13:30:17.818Z,0.75
2023-03-22T13:32:51.643Z,0.15
2023-03-22T13:35:24.553Z,0.17
2023-03-22T13:37:54.193Z,0.40
2023-03-22T13:40:33.985Z,0.40
2023-03-22T13:43:25.292Z,0.22
2023-03-22T13:46:12.803Z,0.28
2023-03-22T13:48:56.035Z,0.85
2023-03-22T13:51:31.095Z,0.38
2023-03-22T13:54:07.894Z,0.22
2023-03-22T13:56:53.311Z,0.28
2023-03-22T13:59:26.923Z,0.45
2023-03-22T14:01:58.347Z,0.30
2023-03-22T14:04:34.900Z,0.50
2023-03-22T14:07:08.128Z,0.25
2023-03-22T14:09:44.462Z,0.30
2023-03-22T14:12:19.063Z,0.38
2023-03-22T14:14:49.646Z,0.20
2023-03-22T14:17:28.064Z,0.20
2023-03-22T14:19:58.214Z,0.28
